Time;durP1;ratioP1;P1;durP2;ratioP2;P2;SDS_P1;SDS_P2;PMS_P1;PMS_P2;Temp;Humidity;BMP_temperature;BMP_pressure;BME280_temperature;BME280_humidity;BME280_pressure;Samples;Min_cycle;Max_cycle;Signal;HPM_P1;HPM_P2
2022/04/06 00:02:18;;;;;;;10.00;3.23;;;11.10;99.90;;;;;;5061246;28;20932;-82
2022/04/06 00:04:45;;;;;;;9.83;3.67;;;11.10;99.90;;;;;;5048351;28;20194;-80
2022/04/06 00:07:12;;;;;;;12.50;3.53;;;11.10;99.90;;;;;;5049203;28;20737;-80
2022/04/06 00:09:39;;;;;;;16.17;5.17;;;11.10;99.90;;;;;;5057677;28;20197;-80
2022/04/06 00:12:07;;;;;;;12.10;3.40;;;11.00;99.90;;;;;;5068111;28;20262;-82
2022/04/06 00:14:34;;;;;;;9.50;3.17;;;11.00;99.90;;;;;;5069895;28;20263;-83
2022/04/06 00:17:05;;;;;;;14.50;3.47;;;10.90;99.90;;;;;;5068796;28;20225;-83
2022/04/06 00:19:33;;;;;;;14.50;4.53;;;10.80;99.90;;;;;;5069493;28;20781;-82
2022/04/06 00:22:01;;;;;;;12.37;4.60;;;10.80;99.90;;;;;;5067700;28;20220;-83
2022/04/06 00:24:28;;;;;;;13.40;3.87;;;10.70;99.90;;;;;;5066422;28;20252;-80
2022/04/06 00:26:55;;;;;;;11.83;4.30;;;10.60;99.90;;;;;;5064415;28;20220;-83
2022/04/06 00:29:22;;;;;;;12.30;4.43;;;10.60;99.90;;;;;;5063914;28;20228;-81
2022/04/06 00:31:49;;;;;;;17.73;4.33;;;10.50;99.90;;;;;;5066019;28;20201;-79
2022/04/06 00:34:16;;;;;;;11.87;3.83;;;10.50;99.90;;;;;;5066104;28;20320;-81
2022/04/06 00:36:45;;;;;;;15.53;4.27;;;10.50;99.90;;;;;;5066264;28;20205;-80
2022/04/06 00:39:12;;;;;;;17.37;4.93;;;10.50;99.90;;;;;;5049720;28;20280;-82
2022/04/06 00:41:40;;;;;;;22.80;5.73;;;10.40;99.90;;;;;;5047013;28;20252;-81
2022/04/06 00:44:11;;;;;;;22.30;6.80;;;10.40;99.90;;;;;;5063270;28;20286;-82
2022/04/06 00:46:38;;;;;;;24.23;7.97;;;10.40;99.90;;;;;;5066715;28;20232;-78
2022/04/06 00:49:07;;;;;;;24.23;7.23;;;10.40;99.90;;;;;;5055083;28;20198;-80
2022/04/06 00:51:34;;;;;;;25.40;7.07;;;10.40;99.90;;;;;;5045671;28;20593;-80
2022/04/06 00:54:03;;;;;;;24.93;6.87;;;10.30;99.90;;;;;;5046117;28;20190;-80
2022/04/06 00:56:30;;;;;;;18.77;5.60;;;10.30;99.90;;;;;;5050833;28;20209;-88
2022/04/06 00:58:57;;;;;;;22.53;6.10;;;10.20;99.90;;;;;;5050350;28;20931;-84
2022/04/06 01:01:24;;;;;;;15.27;5.17;;;10.20;99.90;;;;;;5046324;28;20194;-82
2022/04/06 01:03:51;;;;;;;17.87;5.90;;;10.20;99.90;;;;;;5046527;28;20237;-79
2022/04/06 01:06:18;;;;;;;23.37;7.17;;;10.20;99.90;;;;;;5046064;28;20190;-80
2022/04/06 01:08:44;;;;;;;25.13;6.87;;;10.20;99.90;;;;;;5047972;28;20201;-81
2022/04/06 01:11:13;;;;;;;28.33;8.07;;;10.30;99.90;;;;;;5050131;28;20204;-79
2022/04/06 01:13:41;;;;;;;31.47;8.30;;;10.30;99.90;;;;;;5066363;28;20472;-80
2022/04/06 01:16:07;;;;;;;24.13;6.83;;;10.30;99.90;;;;;;5067152;28;20201;-80
2022/04/06 01:18:36;;;;;;;28.17;7.87;;;10.30;99.90;;;;;;5066654;28;20236;-84
2022/04/06 01:21:03;;;;;;;26.07;7.97;;;10.30;99.90;;;;;;5053612;28;20233;-81
2022/04/06 01:23:31;;;;;;;24.67;7.17;;;10.30;99.90;;;;;;5046798;28;20768;-78
2022/04/06 01:25:58;;;;;;;20.13;6.80;;;10.20;99.90;;;;;;5046351;28;20217;-83
2022/04/06 01:28:26;;;;;;;24.67;9.47;;;10.20;99.90;;;;;;5046372;28;20211;-83
2022/04/06 01:30:52;;;;;;;20.67;7.60;;;10.20;99.90;;;;;;5047874;28;20206;-82
2022/04/06 01:33:19;;;;;;;28.70;8.67;;;10.20;99.90;;;;;;5046507;28;20213;-84
2022/04/06 01:35:47;;;;;;;23.70;8.17;;;10.10;99.90;;;;;;5048192;28;20205;-85
2022/04/06 01:38:14;;;;;;;28.97;9.43;;;10.10;99.90;;;;;;5047885;28;20233;-83
2022/04/06 01:40:43;;;;;;;24.33;9.13;;;10.10;99.90;;;;;;5050739;28;20233;-84
2022/04/06 01:43:10;;;;;;;25.97;9.23;;;10.10;99.90;;;;;;5068147;28;20201;-81
2022/04/06 01:45:37;;;;;;;28.20;10.60;;;10.10;99.90;;;;;;5067597;28;20201;-81
2022/04/06 01:48:05;;;;;;;25.47;10.47;;;10.10;99.90;;;;;;5067924;28;20201;-82
2022/04/06 01:53:16;;;;;;;28.90;10.47;;;10.10;99.90;;;;;;5068426;28;20675;-84
2022/04/06 01:55:44;;;;;;;30.07;10.93;;;10.10;99.90;;;;;;5067970;28;20203;-80
2022/04/06 01:58:11;;;;;;;28.83;11.40;;;10.10;99.90;;;;;;5067916;28;20206;-82
2022/04/06 02:00:38;;;;;;;27.67;9.40;;;10.10;99.90;;;;;;5067679;28;20221;-80
2022/04/06 02:03:05;;;;;;;22.70;9.23;;;10.10;99.90;;;;;;5067056;28;20291;-84
2022/04/06 02:05:33;;;;;;;25.53;8.83;;;10.10;99.90;;;;;;5058522;28;20209;-83
2022/04/06 02:08:01;;;;;;;27.07;8.03;;;10.10;99.90;;;;;;5067722;28;20201;-85
2022/04/06 02:10:28;;;;;;;26.37;8.13;;;10.10;99.90;;;;;;5067865;28;20213;-83
2022/04/06 02:12:58;;;;;;;28.40;6.93;;;10.20;99.90;;;;;;5068227;28;20506;-83
2022/04/06 02:15:27;;;;;;;23.93;8.13;;;10.10;99.90;;;;;;5068339;28;20601;-84
2022/04/06 02:17:54;;;;;;;26.60;8.57;;;10.20;99.90;;;;;;5071853;28;20294;-86
2022/04/06 02:20:22;;;;;;;24.73;8.10;;;10.20;99.90;;;;;;5070598;28;20228;-79
2022/04/06 02:22:49;;;;;;;24.57;7.87;;;10.20;99.90;;;;;;5069327;28;20220;-82
2022/04/06 02:25:16;;;;;;;26.97;7.30;;;10.20;99.90;;;;;;5071253;28;20223;-83
2022/04/06 02:27:47;;;;;;;21.50;6.63;;;10.20;99.90;;;;;;5071004;28;20259;-81
2022/04/06 02:30:15;;;;;;;26.67;7.33;;;10.20;99.90;;;;;;5068661;28;20321;-80
2022/04/06 02:32:42;;;;;;;20.03;6.93;;;10.20;99.90;;;;;;5068949;28;20208;-79
2022/04/06 02:35:10;;;;;;;25.07;7.73;;;10.10;99.90;;;;;;5068950;28;20223;-83
2022/04/06 02:37:37;;;;;;;20.63;6.40;;;10.20;99.90;;;;;;5067512;28;20201;-80
2022/04/06 02:40:05;;;;;;;23.97;7.17;;;10.20;99.90;;;;;;5069248;28;20267;-79
2022/04/06 02:42:32;;;;;;;19.83;5.80;;;10.10;99.90;;;;;;5055397;28;20271;-80
2022/04/06 02:44:59;;;;;;;23.30;5.17;;;10.10;99.90;;;;;;5047983;28;20214;-84
2022/04/06 02:47:27;;;;;;;23.23;5.87;;;10.10;99.90;;;;;;5066086;28;20209;-84
2022/04/06 02:49:54;;;;;;;24.67;6.90;;;10.10;99.90;;;;;;5069672;28;20205;-83
2022/04/06 02:52:20;;;;;;;18.13;5.63;;;10.10;99.90;;;;;;5061928;22;20244;-82
2022/04/06 02:54:47;;;;;;;18.17;5.37;;;10.10;99.90;;;;;;5032985;28;20290;-85
2022/04/06 02:57:14;;;;;;;21.30;4.73;;;10.10;99.90;;;;;;5030570;28;20202;-82
2022/04/06 02:59:41;;;;;;;16.17;3.90;;;10.00;99.90;;;;;;5031203;28;20226;-84
2022/04/06 03:02:08;;;;;;;13.67;4.17;;;10.00;99.90;;;;;;5031232;28;20194;-82
2022/04/06 03:04:36;;;;;;;14.50;4.70;;;9.90;99.90;;;;;;5030243;28;20210;-85
2022/04/06 03:07:03;;;;;;;13.50;4.23;;;10.00;99.90;;;;;;5047264;28;20220;-79
2022/04/06 03:09:30;;;;;;;18.83;4.73;;;9.90;99.90;;;;;;5050212;28;20224;-81
2022/04/06 03:11:59;;;;;;;24.00;5.00;;;10.00;99.90;;;;;;5031195;28;20543;-81
2022/04/06 03:14:26;;;;;;;15.80;4.00;;;9.90;99.90;;;;;;5042560;28;20218;-80
2022/04/06 03:16:52;;;;;;;20.87;5.97;;;10.00;99.90;;;;;;5051019;28;20209;-81
2022/04/06 03:19:19;;;;;;;14.17;4.83;;;10.00;99.90;;;;;;5050395;28;20236;-85
2022/04/06 03:21:48;;;;;;;19.70;4.40;;;10.00;99.90;;;;;;5050599;28;20231;-85
2022/04/06 03:24:14;;;;;;;21.90;4.77;;;10.00;99.90;;;;;;5030807;28;20375;-82
2022/04/06 03:26:41;;;;;;;14.27;4.03;;;10.00;99.90;;;;;;5028072;28;20218;-81
2022/04/06 03:29:08;;;;;;;17.33;4.63;;;10.00;99.90;;;;;;5079504;23;20236;-81
2022/04/06 03:31:35;;;;;;;14.80;4.00;;;9.90;99.90;;;;;;5072234;28;20216;-82
2022/04/06 03:34:01;;;;;;;16.37;4.03;;;9.90;99.90;;;;;;5071474;28;20204;-81
2022/04/06 03:36:28;;;;;;;16.00;4.27;;;9.90;99.90;;;;;;5073707;28;20208;-83
2022/04/06 03:38:57;;;;;;;20.40;4.43;;;9.90;99.90;;;;;;5089233;28;20208;-81
2022/04/06 03:41:23;;;;;;;14.57;3.60;;;9.90;99.90;;;;;;5090729;28;20235;-79
2022/04/06 03:43:52;;;;;;;14.97;3.77;;;9.90;99.90;;;;;;5090080;28;20215;-82
2022/04/06 03:46:19;;;;;;;17.10;3.93;;;9.90;99.90;;;;;;5088059;28;20269;-81
2022/04/06 03:48:45;;;;;;;18.83;3.97;;;9.90;99.90;;;;;;5088669;28;20204;-81
2022/04/06 03:51:12;;;;;;;18.53;4.23;;;9.90;99.90;;;;;;5088462;28;20200;-80
2022/04/06 03:53:39;;;;;;;15.50;3.47;;;9.90;99.90;;;;;;5088336;28;20216;-80
2022/04/06 03:56:07;;;;;;;13.10;3.73;;;9.90;99.90;;;;;;5088339;28;20204;-84
2022/04/06 03:58:34;;;;;;;15.70;3.57;;;9.80;99.90;;;;;;5080241;28;20224;-83
2022/04/06 04:01:01;;;;;;;16.50;4.27;;;9.80;99.90;;;;;;5065994;28;20547;-86
2022/04/06 04:03:27;;;;;;;17.93;3.90;;;9.90;99.90;;;;;;5065842;28;20210;-82
2022/04/06 04:05:54;;;;;;;18.50;4.77;;;9.90;99.90;;;;;;5068413;28;20220;-82
2022/04/06 04:08:22;;;;;;;20.30;4.07;;;9.80;99.90;;;;;;5066550;28;20205;-83
2022/04/06 04:10:49;;;;;;;26.60;5.20;;;9.80;99.90;;;;;;5066846;28;20243;-79
2022/04/06 04:13:17;;;;;;;18.30;4.17;;;9.80;99.90;;;;;;5067066;28;20194;-82
2022/04/06 04:15:44;;;;;;;17.60;4.27;;;9.80;99.90;;;;;;5082969;28;20223;-85
2022/04/06 04:18:11;;;;;;;15.30;4.00;;;9.80;99.90;;;;;;5087661;28;20232;-81
2022/04/06 04:20:40;;;;;;;16.90;4.20;;;9.80;99.90;;;;;;5088418;28;20781;-79
2022/04/06 04:23:07;;;;;;;16.33;4.50;;;9.90;99.90;;;;;;5087304;28;20200;-82
2022/04/06 04:25:33;;;;;;;16.60;3.70;;;9.90;99.90;;;;;;5071641;28;20296;-82
2022/04/06 04:28:00;;;;;;;17.97;3.90;;;9.80;99.90;;;;;;5067811;28;20237;-82
2022/04/06 04:30:28;;;;;;;14.57;4.13;;;9.80;99.90;;;;;;5067779;28;20197;-84
2022/04/06 04:32:55;;;;;;;12.50;3.87;;;9.80;99.90;;;;;;5068054;28;20201;-80
2022/04/06 04:35:22;;;;;;;14.07;3.23;;;9.80;99.90;;;;;;5068119;28;20208;-81
2022/04/06 04:37:49;;;;;;;19.03;4.50;;;9.80;99.90;;;;;;5067694;28;20570;-82
2022/04/06 04:40:17;;;;;;;16.63;4.17;;;9.80;99.90;;;;;;5067593;28;20719;-81
2022/04/06 04:42:44;;;;;;;15.47;3.90;;;9.90;99.90;;;;;;5067370;28;20327;-84
2022/04/06 04:45:11;;;;;;;14.17;3.53;;;9.80;99.90;;;;;;5069180;28;20212;-81
2022/04/06 04:47:40;;;;;;;19.83;4.37;;;9.80;99.90;;;;;;5072700;28;20342;-81
2022/04/06 04:50:09;;;;;;;21.57;4.90;;;9.80;99.90;;;;;;5077586;28;20244;-81
2022/04/06 04:52:35;;;;;;;19.23;4.20;;;9.80;99.90;;;;;;5067391;28;20201;-82
2022/04/06 04:55:02;;;;;;;20.30;5.13;;;9.80;99.90;;;;;;5079261;28;20209;-81
2022/04/06 04:57:29;;;;;;;16.87;3.70;;;9.80;99.90;;;;;;5087008;28;20200;-86
2022/04/06 04:59:56;;;;;;;13.83;3.63;;;9.80;99.90;;;;;;5091808;28;20224;-85
2022/04/06 05:02:22;;;;;;;22.10;4.20;;;9.80;99.90;;;;;;5090875;28;20210;-86
2022/04/06 05:04:50;;;;;;;20.40;4.63;;;9.80;99.90;;;;;;5077837;28;20204;-87
2022/04/06 05:07:17;;;;;;;15.50;4.07;;;9.80;99.90;;;;;;5069548;28;20197;-84
2022/04/06 05:09:44;;;;;;;18.60;4.33;;;9.80;99.90;;;;;;5069822;28;20605;-84
2022/04/06 05:12:12;;;;;;;24.90;4.70;;;9.80;99.90;;;;;;5068977;28;20197;-84
2022/04/06 05:14:39;;;;;;;18.03;4.03;;;9.70;99.90;;;;;;5069315;28;20290;-82
2022/04/06 05:17:06;;;;;;;20.00;4.00;;;9.60;99.90;;;;;;5088112;28;20418;-86
2022/04/06 05:19:33;;;;;;;20.97;3.90;;;9.60;99.90;;;;;;5088326;28;20204;-86
2022/04/06 05:22:01;;;;;;;21.63;4.10;;;9.70;99.90;;;;;;5079908;28;20225;-83
2022/04/06 05:24:28;;;;;;;20.33;4.20;;;9.60;99.90;;;;;;5068458;28;20209;-86
2022/04/06 05:26:54;;;;;;;16.73;3.80;;;9.60;99.90;;;;;;5068238;28;20212;-86
2022/04/06 05:29:21;;;;;;;18.77;4.30;;;9.60;99.90;;;;;;5071739;28;20274;-86
2022/04/06 05:31:48;;;;;;;23.13;4.77;;;9.60;99.90;;;;;;5087397;28;20200;-79
2022/04/06 05:34:16;;;;;;;20.03;4.80;;;9.60;99.90;;;;;;5086636;28;20200;-82
2022/04/06 05:36:43;;;;;;;19.07;3.90;;;9.60;99.90;;;;;;5087477;28;20312;-81
2022/04/06 05:39:12;;;;;;;28.07;5.70;;;9.50;99.90;;;;;;5087142;28;20197;-79
2022/04/06 05:41:39;;;;;;;24.30;5.13;;;9.60;99.90;;;;;;5089356;28;20220;-82
2022/04/06 05:44:06;;;;;;;23.87;6.57;;;9.60;99.90;;;;;;5086353;28;20702;-82
2022/04/06 05:46:33;;;;;;;22.10;5.10;;;9.60;99.90;;;;;;5086221;28;20212;-79
2022/04/06 05:49:00;;;;;;;21.40;4.10;;;9.60;99.90;;;;;;5074551;28;20209;-82
2022/04/06 05:51:27;;;;;;;20.43;4.43;;;9.60;99.90;;;;;;5070110;28;20201;-86
2022/04/06 05:53:54;;;;;;;18.60;4.53;;;9.60;99.90;;;;;;5078955;28;20204;-87
2022/04/06 05:56:22;;;;;;;22.27;4.37;;;9.60;99.90;;;;;;5090445;28;20231;-83
2022/04/06 05:58:49;;;;;;;21.47;4.60;;;9.60;99.90;;;;;;5091026;28;20599;-79
2022/04/06 06:01:15;;;;;;;18.53;4.13;;;9.60;99.90;;;;;;5089537;28;20231;-79
2022/04/06 06:03:42;;;;;;;19.03;4.53;;;9.60;99.90;;;;;;5091018;28;20201;-85
2022/04/06 06:06:09;;;;;;;20.63;5.93;;;9.60;99.90;;;;;;5090248;28;20212;-81
2022/04/06 06:08:36;;;;;;;20.93;4.97;;;9.60;99.90;;;;;;5089767;28;20193;-80
2022/04/06 06:11:03;;;;;;;20.53;6.13;;;9.60;99.90;;;;;;5089666;28;20203;-82
2022/04/06 06:13:32;;;;;;;23.47;4.87;;;9.70;99.90;;;;;;5084165;28;20201;-85
2022/04/06 06:16:00;;;;;;;21.87;5.40;;;9.70;99.90;;;;;;5071220;28;20213;-87
2022/04/06 06:18:27;;;;;;;23.03;5.47;;;9.70;99.90;;;;;;5069875;28;20221;-80
2022/04/06 06:20:56;;;;;;;27.17;7.17;;;9.70;99.90;;;;;;5070464;28;20228;-81
2022/04/06 06:23:23;;;;;;;28.10;6.57;;;9.70;99.90;;;;;;5071311;28;20515;-84
2022/04/06 06:25:49;;;;;;;28.30;6.20;;;9.70;99.90;;;;;;5079595;28;20208;-85
2022/04/06 06:28:16;;;;;;;25.13;6.13;;;9.70;99.90;;;;;;5090801;28;20734;-82
2022/04/06 06:30:45;;;;;;;29.07;6.37;;;9.70;99.90;;;;;;5090904;28;20193;-81
2022/04/06 06:33:13;;;;;;;22.43;5.00;;;9.70;99.90;;;;;;5091008;28;20203;-82
2022/04/06 06:35:39;;;;;;;17.77;5.37;;;9.60;99.90;;;;;;5090831;28;20219;-82
2022/04/06 06:38:07;;;;;;;22.67;5.47;;;9.60;99.90;;;;;;5090456;28;20843;-83
2022/04/06 06:40:34;;;;;;;21.00;4.13;;;9.60;99.90;;;;;;5078942;28;20232;-85
2022/04/06 06:43:00;;;;;;;17.83;4.30;;;9.60;99.90;;;;;;5071319;28;20204;-83
2022/04/06 06:45:27;;;;;;;17.90;5.53;;;9.60;99.90;;;;;;5071386;28;20190;-83
2022/04/06 06:47:55;;;;;;;20.33;4.80;;;9.60;99.90;;;;;;5079025;28;20600;-86
2022/04/06 06:50:22;;;;;;;22.00;4.50;;;9.60;99.90;;;;;;5091525;28;20212;-84
2022/04/06 06:52:49;;;;;;;17.97;5.03;;;9.60;99.90;;;;;;5091194;28;20197;-82
2022/04/06 06:55:18;;;;;;;15.40;3.83;;;9.60;99.90;;;;;;5091247;28;20209;-81
2022/04/06 06:57:45;;;;;;;23.13;4.30;;;9.60;99.90;;;;;;5083477;28;20205;-85
2022/04/06 07:00:13;;;;;;;19.47;5.07;;;9.60;99.90;;;;;;5069996;28;20573;-82
2022/04/06 07:02:40;;;;;;;20.03;5.27;;;9.60;99.90;;;;;;5070636;28;20206;-82
2022/04/06 07:05:09;;;;;;;20.90;6.53;;;9.60;99.90;;;;;;5071241;28;20275;-83
2022/04/06 07:07:51;;;;;;;19.10;5.20;;;9.60;99.90;;;;;;5078925;28;20215;-82
2022/04/06 07:10:18;;;;;;;18.13;6.03;;;9.60;99.90;;;;;;5091080;28;20185;-84
2022/04/06 07:12:45;;;;;;;15.50;4.20;;;9.60;99.90;;;;;;5090239;28;20813;-84
2022/04/06 07:15:12;;;;;;;21.30;4.53;;;9.70;99.90;;;;;;5074926;28;20208;-84
2022/04/06 07:17:45;;;;;;;19.37;4.33;;;9.80;99.90;;;;;;5078535;28;20228;-84
2022/04/06 07:20:13;;;;;;;27.80;6.43;;;9.80;99.90;;;;;;5092854;28;20564;-85
2022/04/06 07:22:40;;;;;;;18.77;4.93;;;9.90;99.90;;;;;;5093295;28;20231;-85
2022/04/06 07:25:08;;;;;;;29.43;4.83;;;10.00;99.90;;;;;;5092579;28;20247;-83
2022/04/06 07:27:36;;;;;;;24.70;5.07;;;10.00;99.90;;;;;;5091636;28;20203;-85
2022/04/06 07:30:03;;;;;;;22.43;5.10;;;10.10;99.90;;;;;;5091820;28;20386;-83
2022/04/06 07:32:31;;;;;;;13.73;4.30;;;10.10;99.90;;;;;;5090292;28;20203;-83
2022/04/06 07:34:59;;;;;;;17.80;5.40;;;10.10;99.90;;;;;;5049584;28;20338;-83
2022/04/06 07:37:27;;;;;;;22.03;4.57;;;10.10;99.90;;;;;;5090050;28;20200;-84
2022/04/06 07:39:54;;;;;;;25.97;4.93;;;10.10;99.90;;;;;;5090351;28;20616;-82
2022/04/06 07:42:20;;;;;;;25.23;5.23;;;10.10;99.90;;;;;;5090480;28;20229;-81
2022/04/06 07:44:48;;;;;;;32.10;5.37;;;10.20;99.90;;;;;;5091029;28;20235;-83
2022/04/06 07:47:14;;;;;;;28.03;5.93;;;10.20;99.90;;;;;;5088740;28;20215;-81
2022/04/06 07:49:41;;;;;;;24.17;5.07;;;10.30;99.90;;;;;;5084214;28;20546;-83
2022/04/06 07:52:08;;;;;;;24.93;4.87;;;10.30;99.90;;;;;;5068723;28;20322;-79
2022/04/06 07:54:36;;;;;;;25.57;6.00;;;10.40;99.90;;;;;;5066782;28;20212;-81
2022/04/06 07:57:03;;;;;;;22.63;5.43;;;10.50;99.90;;;;;;5068677;28;20209;-81
2022/04/06 07:59:30;;;;;;;25.90;5.07;;;10.60;99.90;;;;;;5068173;28;20201;-82
2022/04/06 08:01:57;;;;;;;27.10;5.70;;;10.70;99.90;;;;;;5068724;28;20225;-79
2022/04/06 08:04:24;;;;;;;25.40;5.10;;;10.80;99.90;;;;;;5076978;28;20262;-81
2022/04/06 08:06:50;;;;;;;22.37;5.70;;;10.80;99.90;;;;;;5088688;28;20240;-81
2022/04/06 08:09:17;;;;;;;25.20;5.53;;;10.90;99.90;;;;;;5089003;28;20208;-80
2022/04/06 08:11:46;;;;;;;26.63;4.87;;;10.90;99.90;;;;;;5087267;28;20208;-79
2022/04/06 08:14:12;;;;;;;27.00;5.87;;;11.00;99.90;;;;;;5087233;28;20200;-81
2022/04/06 08:16:39;;;;;;;28.43;6.23;;;11.00;99.90;;;;;;5088659;28;20196;-81
2022/04/06 08:19:06;;;;;;;24.30;5.20;;;11.00;99.90;;;;;;5088456;28;20204;-79
2022/04/06 08:21:32;;;;;;;28.47;5.90;;;11.20;99.90;;;;;;5080792;28;20493;-81
2022/04/06 08:23:59;;;;;;;26.57;6.20;;;11.20;99.90;;;;;;5067827;28;20208;-80
2022/04/06 08:26:27;;;;;;;29.93;5.87;;;11.30;99.90;;;;;;5067244;28;20231;-80
2022/04/06 08:28:55;;;;;;;33.57;5.90;;;11.40;99.90;;;;;;5065280;28;20336;-80
2022/04/06 08:31:22;;;;;;;16.63;4.37;;;11.50;99.90;;;;;;5065998;28;20312;-80
2022/04/06 08:33:49;;;;;;;22.57;4.83;;;11.60;99.90;;;;;;5067541;28;20237;-82
2022/04/06 08:36:16;;;;;;;23.00;5.37;;;11.90;99.90;;;;;;5066078;28;20216;-81
2022/04/06 08:38:43;;;;;;;33.17;6.20;;;12.10;99.90;;;;;;5065503;28;20251;-80
2022/04/06 08:41:10;;;;;;;26.17;5.47;;;12.20;99.90;;;;;;5065379;28;20248;-81
2022/04/06 08:43:37;;;;;;;27.13;5.80;;;12.20;99.90;;;;;;5063769;28;20200;-83
2022/04/06 08:46:06;;;;;;;26.73;6.10;;;12.40;99.90;;;;;;5067635;28;20225;-81
2022/04/06 08:48:35;;;;;;;35.97;7.23;;;12.50;99.90;;;;;;5079874;28;20683;-83
2022/04/06 08:51:03;;;;;;;27.80;6.13;;;12.60;99.90;;;;;;5086423;28;20254;-80
2022/04/06 08:53:30;;;;;;;24.83;7.40;;;12.60;99.90;;;;;;5086370;28;20205;-80
2022/04/06 08:55:57;;;;;;;29.40;6.13;;;12.70;99.90;;;;;;5087228;28;20222;-80
2022/04/06 08:58:24;;;;;;;32.67;7.27;;;12.70;99.90;;;;;;5088045;28;20595;-80
2022/04/06 09:00:50;;;;;;;31.73;7.43;;;12.70;99.90;;;;;;5084729;28;20585;-82
2022/04/06 09:03:21;;;;;;;30.57;6.37;;;12.70;99.90;;;;;;5067515;28;20543;-82
2022/04/06 09:06:00;;;;;;;21.57;5.93;;;12.70;99.90;;;;;;5083762;28;20690;-81
2022/04/06 09:08:35;;;;;;;26.60;7.17;;;12.70;99.90;;;;;;5089078;28;20204;-81
2022/04/06 09:11:07;;;;;;;26.27;6.67;;;12.80;99.90;;;;;;5088031;28;20232;-83
2022/04/06 09:13:35;;;;;;;28.80;7.30;;;12.80;99.90;;;;;;5086712;28;20765;-81
2022/04/06 09:16:02;;;;;;;27.23;6.60;;;12.80;99.90;;;;;;5086874;28;20204;-80
2022/04/06 09:18:42;;;;;;;34.73;7.40;;;12.80;99.90;;;;;;5089269;28;20247;-80
2022/04/06 09:21:10;;;;;;;22.73;5.93;;;12.80;99.90;;;;;;5094226;28;20212;-82
2022/04/06 09:23:38;;;;;;;25.27;6.97;;;12.80;99.90;;;;;;5073827;28;20204;-82
2022/04/06 09:26:06;;;;;;;27.53;5.83;;;12.90;99.90;;;;;;5080497;28;20228;-81
2022/04/06 09:28:33;;;;;;;31.37;6.97;;;13.00;99.90;;;;;;5087238;28;20267;-82
2022/04/06 09:31:00;;;;;;;27.20;6.63;;;13.30;99.90;;;;;;5086296;28;20192;-82
2022/04/06 09:33:30;;;;;;;27.67;6.23;;;13.50;99.90;;;;;;5070662;28;20205;-81
2022/04/06 09:35:58;;;;;;;31.40;7.40;;;13.40;99.90;;;;;;5066521;28;20388;-79
2022/04/06 09:38:29;;;;;;;25.37;7.33;;;13.40;99.90;;;;;;5065115;28;20202;-81
2022/04/06 09:41:02;;;;;;;26.87;6.47;;;13.30;99.90;;;;;;5065313;28;20354;-83
2022/04/06 09:43:30;;;;;;;35.50;8.90;;;13.20;99.90;;;;;;5065213;28;20182;-82
2022/04/06 09:49:01;;;;;;;24.23;5.93;;;13.30;99.90;;;;;;5084393;28;20724;-81
2022/04/06 09:51:29;;;;;;;31.30;7.13;;;13.70;99.90;;;;;;5088044;28;20254;-84
2022/04/06 09:53:56;;;;;;;31.60;7.10;;;13.80;99.90;;;;;;5087738;28;20215;-80
2022/04/06 09:56:24;;;;;;;29.10;6.77;;;13.80;99.90;;;;;;5085115;28;20205;-77
2022/04/06 09:58:51;;;;;;;33.67;7.00;;;13.80;99.90;;;;;;5075822;28;20395;-81
2022/04/06 10:01:19;;;;;;;27.17;6.27;;;13.70;99.90;;;;;;5074752;28;20296;-82
2022/04/06 10:03:50;;;;;;;26.80;6.53;;;13.60;99.90;;;;;;5083803;28;20266;-82
2022/04/06 10:06:17;;;;;;;27.77;6.43;;;13.40;99.90;;;;;;5071738;28;20217;-80
2022/04/06 10:08:46;;;;;;;28.57;7.27;;;13.30;99.90;;;;;;5081257;28;20208;-79
2022/04/06 10:11:13;;;;;;;33.67;7.37;;;13.30;99.90;;;;;;5082060;28;20204;-80
2022/04/06 10:13:40;;;;;;;23.27;7.40;;;13.40;99.90;;;;;;5079565;28;20211;-78
2022/04/06 10:16:11;;;;;;;28.33;7.00;;;13.60;99.90;;;;;;5081368;28;20207;-80
2022/04/06 10:18:39;;;;;;;30.97;7.67;;;13.70;99.90;;;;;;5083140;28;20221;-81
2022/04/06 10:21:11;;;;;;;26.13;7.20;;;13.90;99.90;;;;;;5082375;28;20208;-81
2022/04/06 10:23:52;;;;;;;31.17;6.73;;;14.10;99.90;;;;;;5080341;28;20228;-80
2022/04/06 10:26:31;;;;;;;27.80;7.37;;;14.10;99.90;;;;;;5081506;28;20200;-80
2022/04/06 10:28:58;;;;;;;24.97;5.70;;;14.10;99.90;;;;;;5076331;28;20519;-80
2022/04/06 10:31:30;;;;;;;26.67;6.20;;;14.00;99.90;;;;;;5076971;28;20212;-80
2022/04/06 10:34:19;;;;;;;27.47;6.57;;;13.90;99.90;;;;;;5076123;28;20613;-80
2022/04/06 10:37:04;;;;;;;29.40;6.60;;;13.90;99.90;;;;;;5087560;28;20306;-81
2022/04/06 10:39:32;;;;;;;32.10;7.03;;;13.90;99.90;;;;;;5079822;28;20209;-81
2022/04/06 10:42:17;;;;;;;26.13;6.30;;;13.90;99.90;;;;;;5067990;28;20225;-81
2022/04/06 10:44:44;;;;;;;31.03;7.80;;;13.90;99.90;;;;;;5086490;28;20212;-84
2022/04/06 10:47:12;;;;;;;32.87;7.57;;;14.00;99.90;;;;;;5087602;28;20189;-81
2022/04/06 10:49:40;;;;;;;23.40;6.17;;;14.10;99.90;;;;;;5079989;28;20208;-80
2022/04/06 10:52:24;;;;;;;28.27;6.53;;;14.10;99.90;;;;;;5067334;28;20225;-79
2022/04/06 10:54:52;;;;;;;25.50;6.43;;;14.30;99.90;;;;;;5066968;28;20558;-81
2022/04/06 10:57:19;;;;;;;26.57;5.97;;;14.60;99.90;;;;;;5067451;28;20274;-81
2022/04/06 11:00:15;;;;;;;28.73;5.87;;;14.70;99.90;;;;;;5067700;28;20628;-79
2022/04/06 11:02:52;;;;;;;23.87;6.23;;;14.80;99.90;;;;;;5066364;28;20233;-79
2022/04/06 11:05:45;;;;;;;31.87;7.83;;;14.90;99.90;;;;;;5067661;28;20201;-79
2022/04/06 11:11:40;;;;;;;21.80;6.10;;;14.80;99.90;;;;;;5066824;28;20251;-79
2022/04/06 11:14:07;;;;;;;30.60;6.47;;;14.80;99.90;;;;;;5075528;28;20193;-79
2022/04/06 11:16:41;;;;;;;28.27;6.47;;;14.80;99.90;;;;;;5066441;28;20216;-79
2022/04/06 11:19:08;;;;;;;19.23;4.90;;;14.70;99.90;;;;;;5067110;28;20311;-80
2022/04/06 11:21:35;;;;;;;18.77;5.13;;;14.60;99.90;;;;;;5066638;28;20236;-80
2022/04/06 11:24:02;;;;;;;22.23;6.40;;;14.40;99.90;;;;;;5066242;28;20201;-79
2022/04/06 11:26:38;;;;;;;31.87;6.73;;;14.20;99.90;;;;;;5067857;28;20587;-80
2022/04/06 11:29:06;;;;;;;22.93;5.90;;;14.10;99.90;;;;;;5068760;28;20229;-83
2022/04/06 11:31:33;;;;;;;25.60;5.43;;;14.00;99.90;;;;;;5066167;28;20283;-80
2022/04/06 11:33:59;;;;;;;28.30;5.67;;;13.90;99.90;;;;;;5069447;28;20206;-81
2022/04/06 11:36:27;;;;;;;21.60;7.30;;;13.70;99.90;;;;;;5067350;28;20498;-80
2022/04/06 11:38:54;;;;;;;29.47;7.20;;;13.70;99.90;;;;;;5067316;28;20197;-81
2022/04/06 11:41:21;;;;;;;23.20;5.70;;;13.70;99.90;;;;;;5068953;28;20208;-79
2022/04/06 11:43:50;;;;;;;25.00;5.37;;;13.60;99.90;;;;;;5088618;28;20212;-82
2022/04/06 11:46:18;;;;;;;27.17;6.40;;;13.60;99.90;;;;;;5075557;28;20653;-81
2022/04/06 11:48:46;;;;;;;19.77;5.10;;;13.50;99.90;;;;;;5081155;28;20231;-82
2022/04/06 11:51:13;;;;;;;29.63;6.20;;;13.30;99.90;;;;;;5081176;28;20228;-81
2022/04/06 11:53:40;;;;;;;24.77;6.13;;;13.30;99.90;;;;;;5067313;28;20232;-79
2022/04/06 11:56:07;;;;;;;19.67;5.10;;;13.30;99.90;;;;;;5067568;28;20205;-79
2022/04/06 11:58:36;;;;;;;20.13;5.03;;;13.20;99.90;;;;;;5079190;28;20208;-82
2022/04/06 12:01:05;;;;;;;20.30;5.50;;;13.20;99.90;;;;;;5085284;28;20189;-81
2022/04/06 12:03:35;;;;;;;20.47;5.57;;;13.10;99.90;;;;;;5073566;28;20606;-80
2022/04/06 12:06:03;;;;;;;18.73;5.27;;;13.00;99.90;;;;;;5067010;28;20193;-79
2022/04/06 12:08:31;;;;;;;24.63;6.03;;;12.90;99.90;;;;;;5065946;28;20590;-79
2022/04/06 12:10:59;;;;;;;21.00;5.60;;;12.80;99.90;;;;;;5066576;28;20213;-78
2022/04/06 12:13:29;;;;;;;29.17;6.67;;;12.60;99.90;;;;;;5066184;28;20205;-78
2022/04/06 12:15:56;;;;;;;24.27;6.37;;;12.50;99.90;;;;;;5066783;28;20201;-78
2022/04/06 12:18:25;;;;;;;20.33;5.53;;;12.40;99.90;;;;;;5084578;28;20628;-78
2022/04/06 12:20:54;;;;;;;26.03;4.87;;;12.30;99.90;;;;;;5086546;28;20201;-76
2022/04/06 12:23:23;;;;;;;20.33;5.33;;;12.20;99.90;;;;;;5084104;28;20222;-78
2022/04/06 12:25:50;;;;;;;20.87;5.10;;;12.10;99.90;;;;;;5065568;28;20208;-79
2022/04/06 12:28:21;;;;;;;20.10;4.73;;;12.00;99.90;;;;;;5065032;28;20239;-80
2022/04/06 12:30:57;;;;;;;18.90;4.73;;;12.00;99.90;;;;;;5066568;28;20201;-78
2022/04/06 12:33:42;;;;;;;23.57;5.30;;;11.90;99.90;;;;;;5065014;28;20232;-79
2022/04/06 12:36:19;;;;;;;15.33;4.30;;;11.80;99.90;;;;;;5066878;28;20197;-81
2022/04/06 12:38:58;;;;;;;24.07;5.73;;;11.80;99.90;;;;;;5067000;28;20201;-79
2022/04/06 12:41:26;;;;;;;26.07;5.43;;;11.80;99.90;;;;;;5081096;28;20209;-79
2022/04/06 12:43:54;;;;;;;27.50;5.93;;;11.70;99.90;;;;;;5067311;28;20228;-81
2022/04/06 12:46:41;;;;;;;17.47;5.73;;;11.60;99.90;;;;;;5086286;28;20381;-82
2022/04/06 12:49:22;;;;;;;25.87;6.93;;;11.60;99.90;;;;;;5072860;28;20260;-81
2022/04/06 12:52:06;;;;;;;20.30;6.47;;;11.50;99.90;;;;;;5082488;28;20212;-80
2022/04/06 12:54:34;;;;;;;25.20;6.13;;;11.40;99.90;;;;;;5087165;28;20204;-81
2022/04/06 12:57:09;;;;;;;23.13;8.00;;;11.40;99.90;;;;;;5087230;28;20199;-81